sensor_id;sensor_type;location;lat;lon;timestamp;P1;durP1;ratioP1;P2;durP2;ratioP2
46230;SDS011;31949;51.404;-0.038;2022-08-14T00:01:47;2.35;;;2.00;;
46230;SDS011;31949;51.404;-0.038;2022-08-14T00:04:22;4.10;;;2.35;;
46230;SDS011;31949;51.404;-0.038;2022-08-14T00:07:09;3.15;;;2.50;;
46230;SDS011;31949;51.404;-0.038;2022-08-14T00:09:40;2.25;;;2.03;;
46230;SDS011;31949;51.404;-0.038;2022-08-14T00:12:33;2.65;;;2.22;;
46230;SDS011;31949;51.404;-0.038;2022-08-14T00:15:16;3.08;;;2.45;;
46230;SDS011;31949;51.404;-0.038;2022-08-14T00:17:49;3.42;;;1.98;;
46230;SDS011;31949;51.404;-0.038;2022-08-14T00:20:23;2.30;;;1.98;;
46230;SDS011;31949;51.404;-0.038;2022-08-14T00:23:07;2.05;;;1.85;;
46230;SDS011;31949;51.404;-0.038;2022-08-14T00:25:43;3.08;;;1.92;;
46230;SDS011;31949;51.404;-0.038;2022-08-14T00:28:24;4.35;;;2.22;;
46230;SDS011;31949;51.404;-0.038;2022-08-14T00:31:00;3.20;;;2.30;;
46230;SDS011;31949;51.404;-0.038;2022-08-14T00:33:27;2.63;;;1.85;;
46230;SDS011;31949;51.404;-0.038;2022-08-14T00:36:15;3.30;;;1.95;;
46230;SDS011;31949;51.404;-0.038;2022-08-14T00:39:03;2.90;;;2.40;;
46230;SDS011;31949;51.404;-0.038;2022-08-14T00:41:35;6.82;;;2.63;;
46230;SDS011;31949;51.404;-0.038;2022-08-14T00:44:05;3.60;;;2.17;;
46230;SDS011;31949;51.404;-0.038;2022-08-14T00:46:35;2.80;;;2.38;;
46230;SDS011;31949;51.404;-0.038;2022-08-14T00:49:04;3.05;;;2.35;;
46230;SDS011;31949;51.404;-0.038;2022-08-14T00:51:40;4.15;;;2.80;;
46230;SDS011;31949;51.404;-0.038;2022-08-14T00:54:11;2.35;;;2.15;;
46230;SDS011;31949;51.404;-0.038;2022-08-14T00:56:51;3.78;;;2.38;;
46230;SDS011;31949;51.404;-0.038;2022-08-14T00:59:25;2.92;;;2.67;;
46230;SDS011;31949;51.404;-0.038;2022-08-14T01:01:55;4.45;;;2.50;;
46230;SDS011;31949;51.404;-0.038;2022-08-14T01:04:26;5.68;;;2.50;;
46230;SDS011;31949;51.404;-0.038;2022-08-14T01:07:14;2.42;;;2.20;;
46230;SDS011;31949;51.404;-0.038;2022-08-14T01:09:47;2.85;;;2.22;;
46230;SDS011;31949;51.404;-0.038;2022-08-14T01:12:17;4.53;;;2.60;;
46230;SDS011;31949;51.404;-0.038;2022-08-14T01:14:56;4.78;;;2.60;;
46230;SDS011;31949;51.404;-0.038;2022-08-14T01:17:24;4.20;;;2.15;;
46230;SDS011;31949;51.404;-0.038;2022-08-14T01:20:15;3.15;;;2.75;;
46230;SDS011;31949;51.404;-0.038;2022-08-14T01:23:09;5.20;;;2.70;;
46230;SDS011;31949;51.404;-0.038;2022-08-14T01:25:44;3.05;;;2.38;;
46230;SDS011;31949;51.404;-0.038;2022-08-14T01:28:13;2.35;;;1.90;;
46230;SDS011;31949;51.404;-0.038;2022-08-14T01:31:00;2.72;;;2.53;;
46230;SDS011;31949;51.404;-0.038;2022-08-14T01:33:31;3.60;;;2.30;;
46230;SDS011;31949;51.404;-0.038;2022-08-14T01:36:19;2.28;;;1.90;;
46230;SDS011;31949;51.404;-0.038;2022-08-14T01:38:49;4.88;;;3.00;;
46230;SDS011;31949;51.404;-0.038;2022-08-14T01:41:20;2.15;;;1.92;;
46230;SDS011;31949;51.404;-0.038;2022-08-14T01:43:56;2.20;;;1.88;;
46230;SDS011;31949;51.404;-0.038;2022-08-14T01:46:33;2.50;;;2.13;;
46230;SDS011;31949;51.404;-0.038;2022-08-14T01:49:08;2.65;;;2.42;;
46230;SDS011;31949;51.404;-0.038;2022-08-14T01:51:38;2.58;;;2.38;;
46230;SDS011;31949;51.404;-0.038;2022-08-14T01:54:07;3.35;;;2.20;;
46230;SDS011;31949;51.404;-0.038;2022-08-14T01:56:40;3.47;;;2.70;;
46230;SDS011;31949;51.404;-0.038;2022-08-14T02:02:05;2.72;;;2.45;;
46230;SDS011;31949;51.404;-0.038;2022-08-14T02:04:46;3.30;;;2.50;;
46230;SDS011;31949;51.404;-0.038;2022-08-14T02:07:23;3.33;;;2.55;;
46230;SDS011;31949;51.404;-0.038;2022-08-14T02:10:11;2.90;;;2.10;;
46230;SDS011;31949;51.404;-0.038;2022-08-14T02:12:42;2.90;;;2.70;;
46230;SDS011;31949;51.404;-0.038;2022-08-14T02:15:22;6.43;;;3.28;;
46230;SDS011;31949;51.404;-0.038;2022-08-14T02:17:51;4.72;;;4.32;;
46230;SDS011;31949;51.404;-0.038;2022-08-14T02:20:19;4.38;;;3.97;;
46230;SDS011;31949;51.404;-0.038;2022-08-14T02:22:49;4.43;;;2.90;;
46230;SDS011;31949;51.404;-0.038;2022-08-14T02:25:20;4.65;;;4.22;;
46230;SDS011;31949;51.404;-0.038;2022-08-14T02:27:51;3.83;;;3.40;;
46230;SDS011;31949;51.404;-0.038;2022-08-14T02:30:41;5.90;;;4.63;;
46230;SDS011;31949;51.404;-0.038;2022-08-14T02:33:10;6.00;;;5.22;;
46230;SDS011;31949;51.404;-0.038;2022-08-14T02:35:40;5.78;;;5.28;;
46230;SDS011;31949;51.404;-0.038;2022-08-14T02:38:21;6.95;;;5.22;;
46230;SDS011;31949;51.404;-0.038;2022-08-14T02:40:55;7.05;;;6.38;;
46230;SDS011;31949;51.404;-0.038;2022-08-14T02:43:24;8.32;;;7.50;;
46230;SDS011;31949;51.404;-0.038;2022-08-14T02:46:03;8.48;;;7.63;;
46230;SDS011;31949;51.404;-0.038;2022-08-14T02:48:38;9.27;;;7.78;;
46230;SDS011;31949;51.404;-0.038;2022-08-14T02:51:27;9.27;;;7.63;;
46230;SDS011;31949;51.404;-0.038;2022-08-14T02:53:56;10.57;;;8.95;;
46230;SDS011;31949;51.404;-0.038;2022-08-14T02:56:23;10.48;;;9.43;;
46230;SDS011;31949;51.404;-0.038;2022-08-14T02:59:12;9.48;;;8.13;;
46230;SDS011;31949;51.404;-0.038;2022-08-14T03:01:42;12.82;;;8.60;;
46230;SDS011;31949;51.404;-0.038;2022-08-14T03:04:20;11.27;;;8.48;;
46230;SDS011;31949;51.404;-0.038;2022-08-14T03:06:48;11.63;;;8.75;;
46230;SDS011;31949;51.404;-0.038;2022-08-14T03:09:32;8.45;;;7.65;;
46230;SDS011;31949;51.404;-0.038;2022-08-14T03:12:20;10.20;;;8.15;;
46230;SDS011;31949;51.404;-0.038;2022-08-14T03:14:58;9.38;;;8.02;;
46230;SDS011;31949;51.404;-0.038;2022-08-14T03:17:41;8.30;;;7.40;;
46230;SDS011;31949;51.404;-0.038;2022-08-14T03:20:23;8.40;;;7.60;;
46230;SDS011;31949;51.404;-0.038;2022-08-14T03:22:54;10.07;;;8.00;;
46230;SDS011;31949;51.404;-0.038;2022-08-14T03:25:25;8.27;;;7.38;;
46230;SDS011;31949;51.404;-0.038;2022-08-14T03:27:56;8.20;;;7.40;;
46230;SDS011;31949;51.404;-0.038;2022-08-14T03:30:29;7.30;;;6.60;;
46230;SDS011;31949;51.404;-0.038;2022-08-14T03:33:06;6.85;;;6.22;;
46230;SDS011;31949;51.404;-0.038;2022-08-14T03:35:38;6.00;;;5.47;;
46230;SDS011;31949;51.404;-0.038;2022-08-14T03:38:26;6.47;;;5.88;;
46230;SDS011;31949;51.404;-0.038;2022-08-14T03:41:20;6.97;;;6.32;;
46230;SDS011;31949;51.404;-0.038;2022-08-14T03:43:52;6.45;;;5.85;;
46230;SDS011;31949;51.404;-0.038;2022-08-14T03:46:27;6.40;;;5.47;;
46230;SDS011;31949;51.404;-0.038;2022-08-14T03:49:16;6.63;;;5.47;;
46230;SDS011;31949;51.404;-0.038;2022-08-14T03:51:54;7.35;;;5.25;;
46230;SDS011;31949;51.404;-0.038;2022-08-14T03:54:23;6.43;;;5.07;;
46230;SDS011;31949;51.404;-0.038;2022-08-14T03:56:51;4.78;;;4.38;;
46230;SDS011;31949;51.404;-0.038;2022-08-14T03:59:20;4.10;;;3.60;;
46230;SDS011;31949;51.404;-0.038;2022-08-14T04:01:47;6.70;;;5.07;;
46230;SDS011;31949;51.404;-0.038;2022-08-14T04:04:28;6.07;;;5.03;;
46230;SDS011;31949;51.404;-0.038;2022-08-14T04:06:57;5.97;;;5.18;;
46230;SDS011;31949;51.404;-0.038;2022-08-14T04:09:27;11.23;;;4.40;;
46230;SDS011;31949;51.404;-0.038;2022-08-14T04:11:55;5.25;;;4.45;;
46230;SDS011;31949;51.404;-0.038;2022-08-14T04:14:25;6.55;;;4.68;;
46230;SDS011;31949;51.404;-0.038;2022-08-14T04:16:53;5.80;;;4.97;;
46230;SDS011;31949;51.404;-0.038;2022-08-14T04:19:20;5.63;;;4.63;;
46230;SDS011;31949;51.404;-0.038;2022-08-14T04:21:51;5.00;;;4.32;;
46230;SDS011;31949;51.404;-0.038;2022-08-14T04:24:32;5.97;;;4.88;;
46230;SDS011;31949;51.404;-0.038;2022-08-14T04:27:05;5.85;;;4.63;;
46230;SDS011;31949;51.404;-0.038;2022-08-14T04:29:39;5.00;;;4.55;;
46230;SDS011;31949;51.404;-0.038;2022-08-14T04:32:10;6.05;;;4.88;;
46230;SDS011;31949;51.404;-0.038;2022-08-14T04:34:58;4.30;;;3.90;;
46230;SDS011;31949;51.404;-0.038;2022-08-14T04:37:32;4.93;;;4.43;;
46230;SDS011;31949;51.404;-0.038;2022-08-14T04:40:19;5.13;;;4.43;;
46230;SDS011;31949;51.404;-0.038;2022-08-14T04:43:06;5.20;;;4.75;;
46230;SDS011;31949;51.404;-0.038;2022-08-14T04:46:05;4.50;;;4.03;;
46230;SDS011;31949;51.404;-0.038;2022-08-14T04:51:26;4.75;;;4.30;;
46230;SDS011;31949;51.404;-0.038;2022-08-14T04:54:02;4.85;;;4.22;;
46230;SDS011;31949;51.404;-0.038;2022-08-14T04:56:30;6.13;;;5.13;;
46230;SDS011;31949;51.404;-0.038;2022-08-14T04:59:01;6.13;;;4.28;;
46230;SDS011;31949;51.404;-0.038;2022-08-14T05:01:36;5.32;;;4.43;;
46230;SDS011;31949;51.404;-0.038;2022-08-14T05:04:15;5.20;;;4.20;;
46230;SDS011;31949;51.404;-0.038;2022-08-14T05:06:46;5.55;;;4.70;;
46230;SDS011;31949;51.404;-0.038;2022-08-14T05:09:23;5.18;;;3.90;;
46230;SDS011;31949;51.404;-0.038;2022-08-14T05:11:56;4.93;;;4.38;;
46230;SDS011;31949;51.404;-0.038;2022-08-14T05:14:43;7.13;;;4.95;;
46230;SDS011;31949;51.404;-0.038;2022-08-14T05:17:20;6.03;;;4.55;;
46230;SDS011;31949;51.404;-0.038;2022-08-14T05:20:11;7.15;;;4.18;;
46230;SDS011;31949;51.404;-0.038;2022-08-14T05:22:59;4.75;;;4.30;;
46230;SDS011;31949;51.404;-0.038;2022-08-14T05:25:27;4.95;;;4.45;;
46230;SDS011;31949;51.404;-0.038;2022-08-14T05:28:06;6.17;;;4.57;;
46230;SDS011;31949;51.404;-0.038;2022-08-14T05:30:42;5.90;;;4.90;;
46230;SDS011;31949;51.404;-0.038;2022-08-14T05:33:09;5.85;;;5.35;;
46230;SDS011;31949;51.404;-0.038;2022-08-14T05:35:38;6.60;;;5.97;;
46230;SDS011;31949;51.404;-0.038;2022-08-14T05:38:09;6.10;;;5.63;;
46230;SDS011;31949;51.404;-0.038;2022-08-14T05:40:56;8.93;;;4.82;;
46230;SDS011;31949;51.404;-0.038;2022-08-14T05:43:25;7.85;;;5.60;;
46230;SDS011;31949;51.404;-0.038;2022-08-14T05:46:11;5.43;;;4.93;;
46230;SDS011;31949;51.404;-0.038;2022-08-14T05:48:41;6.05;;;4.82;;
46230;SDS011;31949;51.404;-0.038;2022-08-14T05:51:11;6.60;;;4.93;;
46230;SDS011;31949;51.404;-0.038;2022-08-14T05:53:43;6.35;;;5.53;;
46230;SDS011;31949;51.404;-0.038;2022-08-14T05:56:33;6.00;;;5.50;;
46230;SDS011;31949;51.404;-0.038;2022-08-14T05:59:02;6.18;;;5.50;;
46230;SDS011;31949;51.404;-0.038;2022-08-14T06:01:32;5.57;;;5.07;;
46230;SDS011;31949;51.404;-0.038;2022-08-14T06:04:01;6.90;;;6.07;;
46230;SDS011;31949;51.404;-0.038;2022-08-14T06:06:30;5.85;;;5.22;;
46230;SDS011;31949;51.404;-0.038;2022-08-14T06:09:04;5.05;;;4.65;;
46230;SDS011;31949;51.404;-0.038;2022-08-14T06:11:35;8.57;;;5.40;;
46230;SDS011;31949;51.404;-0.038;2022-08-14T06:14:03;5.80;;;5.30;;
46230;SDS011;31949;51.404;-0.038;2022-08-14T06:16:46;6.00;;;5.40;;
46230;SDS011;31949;51.404;-0.038;2022-08-14T06:19:13;7.55;;;5.07;;
46230;SDS011;31949;51.404;-0.038;2022-08-14T06:21:43;5.68;;;5.18;;
46230;SDS011;31949;51.404;-0.038;2022-08-14T06:24:11;5.85;;;5.20;;
46230;SDS011;31949;51.404;-0.038;2022-08-14T06:26:44;4.75;;;4.35;;
46230;SDS011;31949;51.404;-0.038;2022-08-14T06:29:22;7.15;;;4.85;;
46230;SDS011;31949;51.404;-0.038;2022-08-14T06:31:50;8.43;;;5.50;;
46230;SDS011;31949;51.404;-0.038;2022-08-14T06:34:25;9.20;;;6.10;;
46230;SDS011;31949;51.404;-0.038;2022-08-14T06:37:12;8.15;;;6.00;;
46230;SDS011;31949;51.404;-0.038;2022-08-14T06:39:42;7.28;;;6.57;;
46230;SDS011;31949;51.404;-0.038;2022-08-14T06:42:10;7.53;;;6.28;;
46230;SDS011;31949;51.404;-0.038;2022-08-14T06:44:57;7.80;;;7.07;;
46230;SDS011;31949;51.404;-0.038;2022-08-14T06:47:28;7.05;;;6.35;;
46230;SDS011;31949;51.404;-0.038;2022-08-14T06:49:55;7.97;;;7.18;;
46230;SDS011;31949;51.404;-0.038;2022-08-14T06:52:23;6.60;;;6.00;;
46230;SDS011;31949;51.404;-0.038;2022-08-14T06:54:51;7.00;;;6.40;;
46230;SDS011;31949;51.404;-0.038;2022-08-14T06:57:18;6.88;;;6.20;;
46230;SDS011;31949;51.404;-0.038;2022-08-14T06:59:52;6.40;;;5.80;;
46230;SDS011;31949;51.404;-0.038;2022-08-14T07:02:21;7.80;;;6.35;;
46230;SDS011;31949;51.404;-0.038;2022-08-14T07:05:09;7.85;;;6.28;;
46230;SDS011;31949;51.404;-0.038;2022-08-14T07:07:55;6.70;;;6.05;;
46230;SDS011;31949;51.404;-0.038;2022-08-14T07:10:24;7.35;;;5.88;;
46230;SDS011;31949;51.404;-0.038;2022-08-14T07:12:51;8.10;;;6.75;;
46230;SDS011;31949;51.404;-0.038;2022-08-14T07:15:30;8.30;;;7.18;;
46230;SDS011;31949;51.404;-0.038;2022-08-14T07:18:10;8.57;;;6.32;;
46230;SDS011;31949;51.404;-0.038;2022-08-14T07:20:38;5.80;;;5.18;;
46230;SDS011;31949;51.404;-0.038;2022-08-14T07:23:08;7.97;;;7.07;;
46230;SDS011;31949;51.404;-0.038;2022-08-14T07:25:45;6.13;;;5.53;;
46230;SDS011;31949;51.404;-0.038;2022-08-14T07:30:52;6.43;;;5.28;;
46230;SDS011;31949;51.404;-0.038;2022-08-14T07:36:12;7.82;;;5.00;;
46230;SDS011;31949;51.404;-0.038;2022-08-14T07:38:59;4.75;;;4.22;;
46230;SDS011;31949;51.404;-0.038;2022-08-14T07:41:38;14.20;;;5.88;;
46230;SDS011;31949;51.404;-0.038;2022-08-14T07:44:08;5.45;;;4.07;;
46230;SDS011;31949;51.404;-0.038;2022-08-14T07:46:56;5.00;;;4.60;;
46230;SDS011;31949;51.404;-0.038;2022-08-14T07:49:23;7.75;;;6.00;;
46230;SDS011;31949;51.404;-0.038;2022-08-14T07:51:53;7.13;;;5.55;;
46230;SDS011;31949;51.404;-0.038;2022-08-14T07:54:20;7.13;;;5.43;;
46230;SDS011;31949;51.404;-0.038;2022-08-14T07:56:59;4.47;;;3.78;;
46230;SDS011;31949;51.404;-0.038;2022-08-14T08:02:10;4.05;;;3.65;;
46230;SDS011;31949;51.404;-0.038;2022-08-14T08:04:45;5.00;;;3.38;;
46230;SDS011;31949;51.404;-0.038;2022-08-14T08:07:15;5.22;;;4.45;;
46230;SDS011;31949;51.404;-0.038;2022-08-14T08:09:43;6.80;;;3.78;;
46230;SDS011;31949;51.404;-0.038;2022-08-14T08:12:19;8.02;;;4.40;;
46230;SDS011;31949;51.404;-0.038;2022-08-14T08:14:55;5.47;;;3.92;;
46230;SDS011;31949;51.404;-0.038;2022-08-14T08:17:36;5.72;;;3.83;;
46230;SDS011;31949;51.404;-0.038;2022-08-14T08:20:19;6.25;;;3.90;;
46230;SDS011;31949;51.404;-0.038;2022-08-14T08:22:53;4.38;;;3.25;;
46230;SDS011;31949;51.404;-0.038;2022-08-14T08:25:32;8.18;;;3.65;;
46230;SDS011;31949;51.404;-0.038;2022-08-14T08:28:10;4.65;;;3.30;;
46230;SDS011;31949;51.404;-0.038;2022-08-14T08:30:55;3.42;;;3.13;;
46230;SDS011;31949;51.404;-0.038;2022-08-14T08:33:34;3.53;;;2.88;;
46230;SDS011;31949;51.404;-0.038;2022-08-14T08:36:04;5.57;;;3.67;;
46230;SDS011;31949;51.404;-0.038;2022-08-14T08:38:44;3.22;;;2.92;;
46230;SDS011;31949;51.404;-0.038;2022-08-14T08:41:45;6.43;;;3.40;;
46230;SDS011;31949;51.404;-0.038;2022-08-14T08:44:16;5.50;;;3.47;;
46230;SDS011;31949;51.404;-0.038;2022-08-14T08:46:58;4.60;;;3.60;;
46230;SDS011;31949;51.404;-0.038;2022-08-14T08:49:39;5.30;;;4.15;;
46230;SDS011;31949;51.404;-0.038;2022-08-14T08:52:24;3.92;;;2.83;;
46230;SDS011;31949;51.404;-0.038;2022-08-14T08:54:58;4.85;;;3.53;;
46230;SDS011;31949;51.404;-0.038;2022-08-14T08:57:33;6.95;;;3.42;;
46230;SDS011;31949;51.404;-0.038;2022-08-14T09:00:15;4.75;;;3.38;;
46230;SDS011;31949;51.404;-0.038;2022-08-14T09:02:52;4.53;;;3.00;;
46230;SDS011;31949;51.404;-0.038;2022-08-14T09:05:25;3.30;;;3.00;;
46230;SDS011;31949;51.404;-0.038;2022-08-14T09:07:52;3.78;;;2.85;;
46230;SDS011;31949;51.404;-0.038;2022-08-14T09:10:22;5.25;;;3.30;;
46230;SDS011;31949;51.404;-0.038;2022-08-14T09:12:55;4.28;;;3.10;;
46230;SDS011;31949;51.404;-0.038;2022-08-14T09:15:23;4.25;;;2.88;;
46230;SDS011;31949;51.404;-0.038;2022-08-14T09:18:08;3.42;;;3.13;;
46230;SDS011;31949;51.404;-0.038;2022-08-14T09:20:36;4.07;;;2.42;;
46230;SDS011;31949;51.404;-0.038;2022-08-14T09:23:08;2.95;;;2.45;;
46230;SDS011;31949;51.404;-0.038;2022-08-14T09:25:44;4.05;;;2.85;;
46230;SDS011;31949;51.404;-0.038;2022-08-14T09:28:26;5.63;;;3.25;;
46230;SDS011;31949;51.404;-0.038;2022-08-14T09:30:54;3.20;;;2.90;;
46230;SDS011;31949;51.404;-0.038;2022-08-14T09:43:28;5.07;;;2.40;;
46230;SDS011;31949;51.404;-0.038;2022-08-14T09:45:27;7.25;;;2.92;;
46230;SDS011;31949;51.404;-0.038;2022-08-14T09:48:19;4.13;;;2.55;;
46230;SDS011;31949;51.404;-0.038;2022-08-14T09:50:56;3.50;;;2.45;;
46230;SDS011;31949;51.404;-0.038;2022-08-14T09:56:22;2.58;;;2.08;;
46230;SDS011;31949;51.404;-0.038;2022-08-14T09:58:57;2.45;;;2.08;;
46230;SDS011;31949;51.404;-0.038;2022-08-14T10:01:41;3.30;;;2.25;;
46230;SDS011;31949;51.404;-0.038;2022-08-14T10:04:19;1.90;;;1.73;;
46230;SDS011;31949;51.404;-0.038;2022-08-14T10:07:01;2.50;;;2.30;;
46230;SDS011;31949;51.404;-0.038;2022-08-14T10:09:31;2.42;;;1.92;;
46230;SDS011;31949;51.404;-0.038;2022-08-14T10:12:00;3.10;;;2.38;;
46230;SDS011;31949;51.404;-0.038;2022-08-14T10:14:32;4.40;;;2.33;;
46230;SDS011;31949;51.404;-0.038;2022-08-14T10:17:03;2.42;;;2.05;;
46230;SDS011;31949;51.404;-0.038;2022-08-14T10:19:34;4.20;;;2.03;;
46230;SDS011;31949;51.404;-0.038;2022-08-14T10:22:12;2.08;;;1.98;;
46230;SDS011;31949;51.404;-0.038;2022-08-14T10:25:08;3.15;;;2.20;;
46230;SDS011;31949;51.404;-0.038;2022-08-14T10:27:37;3.60;;;2.20;;
46230;SDS011;31949;51.404;-0.038;2022-08-14T10:30:11;2.05;;;1.75;;
46230;SDS011;31949;51.404;-0.038;2022-08-14T10:32:48;2.92;;;1.98;;
46230;SDS011;31949;51.404;-0.038;2022-08-14T10:35:17;1.85;;;1.65;;
46230;SDS011;31949;51.404;-0.038;2022-08-14T10:37:49;3.08;;;1.90;;
46230;SDS011;31949;51.404;-0.038;2022-08-14T10:40:27;2.33;;;2.13;;
46230;SDS011;31949;51.404;-0.038;2022-08-14T10:43:16;2.72;;;2.25;;
46230;SDS011;31949;51.404;-0.038;2022-08-14T10:45:55;2.85;;;2.10;;
46230;SDS011;31949;51.404;-0.038;2022-08-14T10:48:57;2.03;;;1.60;;
46230;SDS011;31949;51.404;-0.038;2022-08-14T10:51:30;2.28;;;2.08;;
46230;SDS011;31949;51.404;-0.038;2022-08-14T10:54:05;2.15;;;1.90;;
46230;SDS011;31949;51.404;-0.038;2022-08-14T10:56:54;3.90;;;2.30;;
46230;SDS011;31949;51.404;-0.038;2022-08-14T10:59:23;2.83;;;2.10;;
46230;SDS011;31949;51.404;-0.038;2022-08-14T11:02:02;2.17;;;1.88;;
46230;SDS011;31949;51.404;-0.038;2022-08-14T11:04:30;2.58;;;2.10;;
46230;SDS011;31949;51.404;-0.038;2022-08-14T11:06:58;1.70;;;1.60;;
46230;SDS011;31949;51.404;-0.038;2022-08-14T11:09:26;3.83;;;2.03;;
46230;SDS011;31949;51.404;-0.038;2022-08-14T11:11:57;4.68;;;2.20;;
46230;SDS011;31949;51.404;-0.038;2022-08-14T11:14:49;5.30;;;1.80;;
46230;SDS011;31949;51.404;-0.038;2022-08-14T11:17:34;2.13;;;1.63;;
46230;SDS011;31949;51.404;-0.038;2022-08-14T11:20:05;4.10;;;1.67;;
46230;SDS011;31949;51.404;-0.038;2022-08-14T11:22:42;5.22;;;1.50;;
46230;SDS011;31949;51.404;-0.038;2022-08-14T11:25:25;2.42;;;1.70;;
46230;SDS011;31949;51.404;-0.038;2022-08-14T11:28:13;2.42;;;1.42;;
46230;SDS011;31949;51.404;-0.038;2022-08-14T11:30:46;2.05;;;1.67;;
46230;SDS011;31949;51.404;-0.038;2022-08-14T11:33:20;2.30;;;1.30;;
46230;SDS011;31949;51.404;-0.038;2022-08-14T11:35:57;1.83;;;1.63;;
46230;SDS011;31949;51.404;-0.038;2022-08-14T11:38:43;1.85;;;1.50;;
46230;SDS011;31949;51.404;-0.038;2022-08-14T11:41:13;1.90;;;1.80;;
46230;SDS011;31949;51.404;-0.038;2022-08-14T11:43:45;3.10;;;1.40;;
46230;SDS011;31949;51.404;-0.038;2022-08-14T11:46:24;1.45;;;1.35;;
46230;SDS011;31949;51.404;-0.038;2022-08-14T11:49:02;2.33;;;1.42;;
46230;SDS011;31949;51.404;-0.038;2022-08-14T11:51:32;1.42;;;1.33;;
46230;SDS011;31949;51.404;-0.038;2022-08-14T11:54:20;1.45;;;1.35;;
46230;SDS011;31949;51.404;-0.038;2022-08-14T11:57:00;1.70;;;1.60;;
46230;SDS011;31949;51.404;-0.038;2022-08-14T11:59:30;2.92;;;1.52;;
46230;SDS011;31949;51.404;-0.038;2022-08-14T12:02:07;2.92;;;1.50;;
46230;SDS011;31949;51.404;-0.038;2022-08-14T12:04:59;1.50;;;1.40;;
46230;SDS011;31949;51.404;-0.038;2022-08-14T12:07:32;1.55;;;1.45;;
46230;SDS011;31949;51.404;-0.038;2022-08-14T12:10:00;1.60;;;1.50;;
46230;SDS011;31949;51.404;-0.038;2022-08-14T12:12:47;3.13;;;1.48;;
46230;SDS011;31949;51.404;-0.038;2022-08-14T12:15:38;2.85;;;1.50;;
46230;SDS011;31949;51.404;-0.038;2022-08-14T12:18:10;1.73;;;1.63;;
46230;SDS011;31949;51.404;-0.038;2022-08-14T12:20:45;1.75;;;1.35;;
46230;SDS011;31949;51.404;-0.038;2022-08-14T12:23:20;10.20;;;1.38;;
46230;SDS011;31949;51.404;-0.038;2022-08-14T12:25:48;3.75;;;1.45;;
46230;SDS011;31949;51.404;-0.038;2022-08-14T12:28:36;2.55;;;1.30;;
46230;SDS011;31949;51.404;-0.038;2022-08-14T12:31:24;2.33;;;1.33;;
46230;SDS011;31949;51.404;-0.038;2022-08-14T12:34:11;2.17;;;1.73;;
46230;SDS011;31949;51.404;-0.038;2022-08-14T12:36:45;1.35;;;1.25;;
46230;SDS011;31949;51.404;-0.038;2022-08-14T12:39:17;4.43;;;1.50;;
46230;SDS011;31949;51.404;-0.038;2022-08-14T12:41:50;2.75;;;1.65;;
46230;SDS011;31949;51.404;-0.038;2022-08-14T12:44:29;1.60;;;1.42;;
46230;SDS011;31949;51.404;-0.038;2022-08-14T12:47:13;1.80;;;1.48;;
46230;SDS011;31949;51.404;-0.038;2022-08-14T12:49:47;1.60;;;1.50;;
46230;SDS011;31949;51.404;-0.038;2022-08-14T12:52:30;3.97;;;1.85;;
46230;SDS011;31949;51.404;-0.038;2022-08-14T12:55:19;3.72;;;1.75;;
46230;SDS011;31949;51.404;-0.038;2022-08-14T12:57:49;2.00;;;1.73;;
46230;SDS011;31949;51.404;-0.038;2022-08-14T13:00:22;3.22;;;2.22;;
46230;SDS011;31949;51.404;-0.038;2022-08-14T13:02:52;4.13;;;2.22;;
46230;SDS011;31949;51.404;-0.038;2022-08-14T13:05:26;6.20;;;2.95;;
46230;SDS011;31949;51.404;-0.038;2022-08-14T13:08:00;3.22;;;2.85;;
46230;SDS011;31949;51.404;-0.038;2022-08-14T13:10:51;5.95;;;5.03;;
46230;SDS011;31949;51.404;-0.038;2022-08-14T13:13:28;8.98;;;6.80;;
46230;SDS011;31949;51.404;-0.038;2022-08-14T13:16:00;9.23;;;8.27;;
46230;SDS011;31949;51.404;-0.038;2022-08-14T13:18:46;7.32;;;6.30;;
46230;SDS011;31949;51.404;-0.038;2022-08-14T13:21:27;7.57;;;6.63;;
46230;SDS011;31949;51.404;-0.038;2022-08-14T13:24:17;7.45;;;6.72;;
46230;SDS011;31949;51.404;-0.038;2022-08-14T13:26:48;7.32;;;6.63;;
46230;SDS011;31949;51.404;-0.038;2022-08-14T13:29:20;6.65;;;5.95;;
46230;SDS011;31949;51.404;-0.038;2022-08-14T13:31:49;6.97;;;6.13;;
46230;SDS011;31949;51.404;-0.038;2022-08-14T13:34:21;5.80;;;5.25;;
46230;SDS011;31949;51.404;-0.038;2022-08-14T13:36:52;4.63;;;4.22;;
46230;SDS011;31949;51.404;-0.038;2022-08-14T13:39:29;4.32;;;3.92;;
46230;SDS011;31949;51.404;-0.038;2022-08-14T13:42:03;6.50;;;4.85;;
46230;SDS011;31949;51.404;-0.038;2022-08-14T13:44:40;5.22;;;4.72;;
46230;SDS011;31949;51.404;-0.038;2022-08-14T13:47:09;6.30;;;5.70;;
46230;SDS011;31949;51.404;-0.038;2022-08-14T13:49:39;8.98;;;5.32;;
46230;SDS011;31949;51.404;-0.038;2022-08-14T13:52:23;5.75;;;4.72;;
46230;SDS011;31949;51.404;-0.038;2022-08-14T13:55:12;5.72;;;4.28;;
46230;SDS011;31949;51.404;-0.038;2022-08-14T13:57:45;3.78;;;3.47;;
46230;SDS011;31949;51.404;-0.038;2022-08-14T14:00:30;5.65;;;3.00;;
46230;SDS011;31949;51.404;-0.038;2022-08-14T14:03:17;2.72;;;2.53;;
46230;SDS011;31949;51.404;-0.038;2022-08-14T14:05:51;3.45;;;2.42;;
46230;SDS011;31949;51.404;-0.038;2022-08-14T14:08:21;9.38;;;3.45;;
46230;SDS011;31949;51.404;-0.038;2022-08-14T14:11:09;2.17;;;1.98;;
46230;SDS011;31949;51.404;-0.038;2022-08-14T14:13:43;2.65;;;1.50;;
46230;SDS011;31949;51.404;-0.038;2022-08-14T14:16:12;3.80;;;1.42;;
46230;SDS011;31949;51.404;-0.038;2022-08-14T14:18:53;2.85;;;1.65;;
46230;SDS011;31949;51.404;-0.038;2022-08-14T14:21:22;1.80;;;1.20;;
46230;SDS011;31949;51.404;-0.038;2022-08-14T14:23:54;2.13;;;1.30;;
46230;SDS011;31949;51.404;-0.038;2022-08-14T14:26:22;1.30;;;1.20;;
46230;SDS011;31949;51.404;-0.038;2022-08-14T14:28:53;2.03;;;1.30;;
46230;SDS011;31949;51.404;-0.038;2022-08-14T14:31:23;1.83;;;0.97;;
46230;SDS011;31949;51.404;-0.038;2022-08-14T14:34:00;1.45;;;1.10;;
46230;SDS011;31949;51.404;-0.038;2022-08-14T14:36:45;2.85;;;1.20;;
46230;SDS011;31949;51.404;-0.038;2022-08-14T14:39:19;2.67;;;1.10;;
46230;SDS011;31949;51.404;-0.038;2022-08-14T14:41:53;2.83;;;1.33;;
46230;SDS011;31949;51.404;-0.038;2022-08-14T14:44:32;1.40;;;1.30;;
46230;SDS011;31949;51.404;-0.038;2022-08-14T14:47:09;2.40;;;1.30;;
46230;SDS011;31949;51.404;-0.038;2022-08-14T14:49:38;2.05;;;1.40;;
46230;SDS011;31949;51.404;-0.038;2022-08-14T14:52:23;1.10;;;1.05;;
46230;SDS011;31949;51.404;-0.038;2022-08-14T14:54:56;1.27;;;1.08;;
46230;SDS011;31949;51.404;-0.038;2022-08-14T14:57:27;1.20;;;1.05;;
46230;SDS011;31949;51.404;-0.038;2022-08-14T15:00:03;2.42;;;1.55;;
46230;SDS011;31949;51.404;-0.038;2022-08-14T15:02:39;3.42;;;1.52;;
46230;SDS011;31949;51.404;-0.038;2022-08-14T15:05:09;1.40;;;1.20;;
46230;SDS011;31949;51.404;-0.038;2022-08-14T15:07:39;1.95;;;1.50;;
46230;SDS011;31949;51.404;-0.038;2022-08-14T15:10:10;4.22;;;1.33;;
46230;SDS011;31949;51.404;-0.038;2022-08-14T15:12:57;2.65;;;1.20;;
46230;SDS011;31949;51.404;-0.038;2022-08-14T15:15:30;2.03;;;1.48;;
46230;SDS011;31949;51.404;-0.038;2022-08-14T15:17:58;1.55;;;1.40;;
46230;SDS011;31949;51.404;-0.038;2022-08-14T15:20:26;1.25;;;1.15;;
46230;SDS011;31949;51.404;-0.038;2022-08-14T15:22:56;2.83;;;1.23;;
46230;SDS011;31949;51.404;-0.038;2022-08-14T15:25:38;1.63;;;1.45;;
46230;SDS011;31949;51.404;-0.038;2022-08-14T15:28:06;1.40;;;1.30;;
46230;SDS011;31949;51.404;-0.038;2022-08-14T15:30:39;1.88;;;1.30;;
46230;SDS011;31949;51.404;-0.038;2022-08-14T15:33:08;1.92;;;1.30;;
46230;SDS011;31949;51.404;-0.038;2022-08-14T15:35:39;1.58;;;1.45;;
46230;SDS011;31949;51.404;-0.038;2022-08-14T15:38:11;2.25;;;1.33;;
46230;SDS011;31949;51.404;-0.038;2022-08-14T15:43:17;1.85;;;1.45;;
46230;SDS011;31949;51.404;-0.038;2022-08-14T15:45:44;1.85;;;1.60;;
46230;SDS011;31949;51.404;-0.038;2022-08-14T15:48:12;1.60;;;1.42;;
46230;SDS011;31949;51.404;-0.038;2022-08-14T15:50:48;1.50;;;1.40;;
46230;SDS011;31949;51.404;-0.038;2022-08-14T15:53:17;2.28;;;1.02;;